• Join FlightAware (Why Join?)
  • Login
  • US Flag 
08:02PM EDT


 

Airport Tracker/Info


-or-


 

Live Flight TrackerFlight Track Log ✈ N5232U ✈ 22-Apr-2013 ✈ KOKK - I74

Flight Track Log - Related Links

Times and Time Zones

All times are in EDT time to prevent confusion due to time zone crossing. See the N5232U flight status page for this flight to view local times or setup timezone preferences in your user account.

Time Position Orientation Groundspeed Altitude Reporting Facility
EDT Latitude Longitude Course Direction KTS MPH feet Rate Location/Type
03:47PM 40.4917 -86.1242 93° East 115 132 3,500  Level Chicago Center
03:47PM 40.4906 -86.0914 93° East 114 131 3,400 -60 Descending Chicago Center
03:48PM 40.4858 -86.0500 99° East 116 133 3,400 -60 Level Chicago Center
03:49PM 40.4786 -86.0086 103° East 114 131 3,300 -120 Descending Chicago Center
03:50PM 40.4717 -85.9644 102° East 115 132 3,200  Descending Chicago Center
03:51PM 40.4667 -85.9233 99° East 116 133 3,300 120 Climbing Chicago Center
03:52PM 40.4572 -85.8872 109° East 104 120 3,500 120 Climbing Chicago Center
03:53PM 40.4522 -85.8461 99° East 113 130 3,600 60 Climbing Chicago Center
03:54PM 40.4453 -85.8019 102° East 122 140 3,700 -120 Climbing Chicago Center
03:57PM 40.4333 -85.7000 99° East 126 145 3,400 -120 Descending Indianapolis TRACON
03:58PM 40.4333 -85.6500 90° East 125 144 3,500 60 Climbing Indianapolis TRACON
03:59PM 40.4167 -85.6167 123° Southeast 120 138 3,600 60 Climbing Indianapolis TRACON
04:00PM 40.4167 -85.5667 90° East 124 143 3,700 -60 Climbing Indianapolis TRACON
04:01PM 40.4000 -85.5167 114° Southeast 127 146 3,500 -180 Descending Indianapolis TRACON
04:02PM 40.4000 -85.4833 90° East 127 146 3,400 -120 Descending Indianapolis TRACON
04:03PM 40.3833 -85.4333 114° Southeast 127 146 3,300 -60 Descending Indianapolis TRACON
04:03PM 40.3833 -85.4000 90° East 127 146 3,300 60 Level Indianapolis TRACON
04:05PM 40.4046 -85.4635 294° West  Level FlightAware Approximate
04:08PM 40.3600 -85.2272 104° East 121 139 3,700  Level Indianapolis Center
04:08PM 40.3553 -85.2072 107° East 119 137 3,700  Level Indianapolis Center
04:12PM 40.3984 -85.3287 104° East  Level FlightAware Approximate
04:13PM 40.3870 -85.2693 104° East  Level FlightAware Approximate